Salt Lake City, Utah
Current Conditions -  °F | °C
As of 6:53 PM on Friday 28 Nov 2014 (Local Time) from KSLC Reporting Station
Few Clouds Few Clouds  
Wind Chill: 56°   Ceiling: Unl
Heat Index: 56°   Visibility: 10mi
Dew Point: 15°   Wind: 13mph
Humidity: 20%   Direction: 180°S
Pressure: 29.8"   Gusts: NA
Location:  40.76°N, 111.88°W
Report Text: KSLC 290153Z 18011KT 10SM FEW140 FEW200 13/M09 A2980 RMK AO2 SLP070 T01331094
Loading
Personal Weather Stations






























Interactive Weather Map New forecast layout! Learn more

10-Day Weather Forecast

Advertisements
Track Severe Weather on mobile